sensor_id;sensor_type;location;lat;lon;timestamp;pressure;altitude;pressure_sealevel;temperature;humidity
15487;BME280;7845;53.698;10.078;2023-01-15T00:00:48;98894.91;;;8.78;100.00
15487;BME280;7845;53.698;10.078;2023-01-15T00:03:13;98893.25;;;8.76;100.00
15487;BME280;7845;53.698;10.078;2023-01-15T00:05:38;98899.50;;;8.70;100.00
15487;BME280;7845;53.698;10.078;2023-01-15T00:08:04;98906.59;;;8.65;100.00
15487;BME280;7845;53.698;10.078;2023-01-15T00:10:30;98899.81;;;8.60;100.00
15487;BME280;7845;53.698;10.078;2023-01-15T00:12:56;98905.13;;;8.57;100.00
15487;BME280;7845;53.698;10.078;2023-01-15T00:15:21;98910.34;;;8.55;100.00
15487;BME280;7845;53.698;10.078;2023-01-15T00:17:47;98901.75;;;8.53;100.00
15487;BME280;7845;53.698;10.078;2023-01-15T00:20:12;98903.50;;;8.53;100.00
15487;BME280;7845;53.698;10.078;2023-01-15T00:22:37;98903.50;;;8.53;100.00
15487;BME280;7845;53.698;10.078;2023-01-15T00:25:03;98892.28;;;8.51;100.00
15487;BME280;7845;53.698;10.078;2023-01-15T00:27:47;98899.44;;;8.43;100.00
15487;BME280;7845;53.698;10.078;2023-01-15T00:30:14;98908.19;;;8.40;100.00
15487;BME280;7845;53.698;10.078;2023-01-15T00:32:40;98913.31;;;8.43;100.00
15487;BME280;7845;53.698;10.078;2023-01-15T00:35:09;98916.81;;;8.42;100.00
15487;BME280;7845;53.698;10.078;2023-01-15T00:37:35;98927.50;;;8.31;100.00
15487;BME280;7845;53.698;10.078;2023-01-15T00:40:00;98938.75;;;8.32;100.00
15487;BME280;7845;53.698;10.078;2023-01-15T00:42:26;98942.16;;;8.34;100.00
15487;BME280;7845;53.698;10.078;2023-01-15T00:44:51;98938.69;;;8.33;100.00
15487;BME280;7845;53.698;10.078;2023-01-15T00:47:16;98943.22;;;8.27;100.00
15487;BME280;7845;53.698;10.078;2023-01-15T00:49:42;98949.28;;;8.27;100.00
15487;BME280;7845;53.698;10.078;2023-01-15T00:52:08;98948.38;;;8.28;100.00
15487;BME280;7845;53.698;10.078;2023-01-15T00:54:34;98951.88;;;8.27;100.00
15487;BME280;7845;53.698;10.078;2023-01-15T00:56:59;98954.38;;;8.30;100.00
15487;BME280;7845;53.698;10.078;2023-01-15T00:59:24;98956.09;;;8.31;100.00
15487;BME280;7845;53.698;10.078;2023-01-15T01:01:50;98958.78;;;8.28;100.00
15487;BME280;7845;53.698;10.078;2023-01-15T01:04:15;98956.16;;;8.30;100.00
15487;BME280;7845;53.698;10.078;2023-01-15T01:06:41;98963.19;;;8.25;100.00
15487;BME280;7845;53.698;10.078;2023-01-15T01:09:06;98969.19;;;8.27;100.00
15487;BME280;7845;53.698;10.078;2023-01-15T01:11:32;98974.47;;;8.24;100.00
15487;BME280;7845;53.698;10.078;2023-01-15T01:13:59;98977.03;;;8.25;100.00
15487;BME280;7845;53.698;10.078;2023-01-15T01:16:33;98979.75;;;8.21;100.00
15487;BME280;7845;53.698;10.078;2023-01-15T01:19:07;98986.72;;;8.19;100.00
15487;BME280;7845;53.698;10.078;2023-01-15T01:21:34;98990.16;;;8.21;100.00
15487;BME280;7845;53.698;10.078;2023-01-15T01:24:00;98992.88;;;8.16;100.00
15487;BME280;7845;53.698;10.078;2023-01-15T01:26:27;98993.72;;;8.17;100.00
15487;BME280;7845;53.698;10.078;2023-01-15T01:28:53;98999.69;;;8.20;100.00
15487;BME280;7845;53.698;10.078;2023-01-15T01:31:19;99004.06;;;8.18;100.00
15487;BME280;7845;53.698;10.078;2023-01-15T01:33:47;98991.75;;;8.25;100.00
15487;BME280;7845;53.698;10.078;2023-01-15T01:36:13;98993.47;;;8.26;100.00
15487;BME280;7845;53.698;10.078;2023-01-15T01:38:38;98994.34;;;8.26;100.00
15487;BME280;7845;53.698;10.078;2023-01-15T01:41:04;98990.88;;;8.26;100.00
15487;BME280;7845;53.698;10.078;2023-01-15T01:43:29;98994.31;;;8.28;100.00
15487;BME280;7845;53.698;10.078;2023-01-15T01:45:55;99002.09;;;8.28;100.00
15487;BME280;7845;53.698;10.078;2023-01-15T01:48:27;98990.97;;;8.23;100.00
15487;BME280;7845;53.698;10.078;2023-01-15T01:50:55;99002.22;;;8.23;100.00
15487;BME280;7845;53.698;10.078;2023-01-15T01:53:26;99010.97;;;8.19;100.00
15487;BME280;7845;53.698;10.078;2023-01-15T01:55:53;99010.09;;;8.20;100.00
15487;BME280;7845;53.698;10.078;2023-01-15T01:58:20;99009.16;;;8.23;100.00
15487;BME280;7845;53.698;10.078;2023-01-15T02:00:48;99009.94;;;8.25;100.00
15487;BME280;7845;53.698;10.078;2023-01-15T02:03:15;99010.75;;;8.28;100.00
15487;BME280;7845;53.698;10.078;2023-01-15T02:05:49;98995.22;;;8.25;100.00
15487;BME280;7845;53.698;10.078;2023-01-15T02:08:16;99001.16;;;8.30;100.00
15487;BME280;7845;53.698;10.078;2023-01-15T02:10:41;98996.72;;;8.36;100.00
15487;BME280;7845;53.698;10.078;2023-01-15T02:13:19;98988.94;;;8.34;100.00
15487;BME280;7845;53.698;10.078;2023-01-15T02:15:47;98981.22;;;8.32;100.00
15487;BME280;7845;53.698;10.078;2023-01-15T02:18:35;98982.00;;;8.34;100.00
15487;BME280;7845;53.698;10.078;2023-01-15T02:21:18;98984.75;;;8.30;100.00
15487;BME280;7845;53.698;10.078;2023-01-15T02:24:05;98980.47;;;8.27;100.00
15487;BME280;7845;53.698;10.078;2023-01-15T02:26:47;98983.81;;;8.32;100.00
15487;BME280;7845;53.698;10.078;2023-01-15T02:29:19;98985.69;;;8.26;100.00
15487;BME280;7845;53.698;10.078;2023-01-15T02:31:50;98994.53;;;8.19;100.00
15487;BME280;7845;53.698;10.078;2023-01-15T02:34:24;98997.91;;;8.22;100.00
15487;BME280;7845;53.698;10.078;2023-01-15T02:37:05;99003.97;;;8.21;100.00
15487;BME280;7845;53.698;10.078;2023-01-15T02:39:35;99000.59;;;8.19;100.00
15487;BME280;7845;53.698;10.078;2023-01-15T02:42:03;99004.84;;;8.22;100.00
15487;BME280;7845;53.698;10.078;2023-01-15T02:44:31;98984.03;;;8.23;100.00
15487;BME280;7845;53.698;10.078;2023-01-15T02:46:58;98988.38;;;8.23;100.00
15487;BME280;7845;53.698;10.078;2023-01-15T02:49:24;98986.56;;;8.25;100.00
15487;BME280;7845;53.698;10.078;2023-01-15T02:52:00;98992.63;;;8.25;100.00
15487;BME280;7845;53.698;10.078;2023-01-15T02:54:32;98987.59;;;8.19;100.00
15487;BME280;7845;53.698;10.078;2023-01-15T02:57:01;98985.78;;;8.21;100.00
15487;BME280;7845;53.698;10.078;2023-01-15T02:59:33;98977.09;;;8.24;100.00
15487;BME280;7845;53.698;10.078;2023-01-15T03:02:03;98984.19;;;8.17;100.00
15487;BME280;7845;53.698;10.078;2023-01-15T03:04:41;98976.31;;;8.20;100.00
15487;BME280;7845;53.698;10.078;2023-01-15T03:07:16;98986.88;;;8.14;100.00
15487;BME280;7845;53.698;10.078;2023-01-15T03:09:43;98973.88;;;8.14;100.00
15487;BME280;7845;53.698;10.078;2023-01-15T03:14:46;98979.09;;;8.13;100.00
15487;BME280;7845;53.698;10.078;2023-01-15T03:17:18;98981.78;;;8.10;100.00
15487;BME280;7845;53.698;10.078;2023-01-15T03:20:07;98977.50;;;8.09;100.00
15487;BME280;7845;53.698;10.078;2023-01-15T03:22:37;98983.72;;;8.03;100.00
15487;BME280;7845;53.698;10.078;2023-01-15T03:25:18;98981.84;;;8.08;100.00
15487;BME280;7845;53.698;10.078;2023-01-15T03:27:44;98974.91;;;8.09;100.00
15487;BME280;7845;53.698;10.078;2023-01-15T03:30:16;98976.66;;;8.07;100.00
15487;BME280;7845;53.698;10.078;2023-01-15T03:32:43;98967.22;;;8.04;100.00
15487;BME280;7845;53.698;10.078;2023-01-15T03:38:26;98964.69;;;8.01;100.00
15487;BME280;7845;53.698;10.078;2023-01-15T03:41:01;98966.50;;;7.99;100.00
15487;BME280;7845;53.698;10.078;2023-01-15T03:43:43;98979.47;;;7.99;100.00
15487;BME280;7845;53.698;10.078;2023-01-15T03:46:29;98963.09;;;7.97;100.00
15487;BME280;7845;53.698;10.078;2023-01-15T03:49:06;98969.19;;;7.95;100.00
15487;BME280;7845;53.698;10.078;2023-01-15T03:51:51;98965.72;;;7.96;100.00
15487;BME280;7845;53.698;10.078;2023-01-15T03:54:32;98959.56;;;8.00;100.00
15487;BME280;7845;53.698;10.078;2023-01-15T03:57:10;98956.19;;;7.96;100.00
15487;BME280;7845;53.698;10.078;2023-01-15T03:59:45;98961.53;;;7.90;100.00
15487;BME280;7845;53.698;10.078;2023-01-15T04:02:14;98961.31;;;7.98;100.00
15487;BME280;7845;53.698;10.078;2023-01-15T04:04:42;98952.94;;;7.88;100.00
15487;BME280;7845;53.698;10.078;2023-01-15T04:07:08;98959.78;;;7.91;100.00
15487;BME280;7845;53.698;10.078;2023-01-15T04:09:38;98955.53;;;7.88;100.00
15487;BME280;7845;53.698;10.078;2023-01-15T04:12:04;98959.88;;;7.88;100.00
15487;BME280;7845;53.698;10.078;2023-01-15T04:14:30;98958.41;;;7.77;100.00
15487;BME280;7845;53.698;10.078;2023-01-15T04:16:56;98946.56;;;7.66;100.00
15487;BME280;7845;53.698;10.078;2023-01-15T04:19:21;98956.94;;;7.67;100.00
15487;BME280;7845;53.698;10.078;2023-01-15T04:21:46;98953.56;;;7.64;100.00
15487;BME280;7845;53.698;10.078;2023-01-15T04:24:12;98944.94;;;7.62;100.00
15487;BME280;7845;53.698;10.078;2023-01-15T04:26:37;98942.81;;;7.77;100.00
15487;BME280;7845;53.698;10.078;2023-01-15T04:29:03;98946.28;;;7.78;100.00
15487;BME280;7845;53.698;10.078;2023-01-15T04:31:28;98943.59;;;7.81;100.00
15487;BME280;7845;53.698;10.078;2023-01-15T04:33:56;98941.84;;;7.82;100.00
15487;BME280;7845;53.698;10.078;2023-01-15T04:36:21;98933.28;;;7.78;100.00
15487;BME280;7845;53.698;10.078;2023-01-15T04:38:47;98940.22;;;7.77;100.00
15487;BME280;7845;53.698;10.078;2023-01-15T04:41:12;98936.84;;;7.74;100.00
15487;BME280;7845;53.698;10.078;2023-01-15T04:43:56;98931.66;;;7.74;100.00
15487;BME280;7845;53.698;10.078;2023-01-15T04:48:59;98930.06;;;7.68;100.00
15487;BME280;7845;53.698;10.078;2023-01-15T04:51:25;98935.38;;;7.64;100.00
15487;BME280;7845;53.698;10.078;2023-01-15T04:53:50;98923.28;;;7.63;100.00
15487;BME280;7845;53.698;10.078;2023-01-15T04:56:15;98927.69;;;7.61;100.00
15487;BME280;7845;53.698;10.078;2023-01-15T04:58:41;98929.38;;;7.62;100.00
15487;BME280;7845;53.698;10.078;2023-01-15T05:01:14;98928.56;;;7.60;100.00
15487;BME280;7845;53.698;10.078;2023-01-15T05:03:40;98932.03;;;7.59;100.00
15487;BME280;7845;53.698;10.078;2023-01-15T05:06:06;98919.91;;;7.59;100.00
15487;BME280;7845;53.698;10.078;2023-01-15T05:08:31;98925.19;;;7.56;100.00
15487;BME280;7845;53.698;10.078;2023-01-15T05:11:01;98926.03;;;7.58;100.00
15487;BME280;7845;53.698;10.078;2023-01-15T05:13:27;98934.63;;;7.60;100.00
15487;BME280;7845;53.698;10.078;2023-01-15T05:15:52;98936.28;;;7.63;100.00
15487;BME280;7845;53.698;10.078;2023-01-15T05:18:17;98931.00;;;7.66;100.00
15487;BME280;7845;53.698;10.078;2023-01-15T05:20:43;98931.00;;;7.66;100.00
15487;BME280;7845;53.698;10.078;2023-01-15T05:23:08;98932.00;;;7.60;100.00
15487;BME280;7845;53.698;10.078;2023-01-15T05:25:37;98926.75;;;7.62;100.00
15487;BME280;7845;53.698;10.078;2023-01-15T05:28:02;98925.81;;;7.66;100.00
15487;BME280;7845;53.698;10.078;2023-01-15T05:30:28;98925.66;;;7.72;100.00
15487;BME280;7845;53.698;10.078;2023-01-15T05:32:53;98929.19;;;7.69;100.00
15487;BME280;7845;53.698;10.078;2023-01-15T05:35:18;98925.72;;;7.70;100.00
15487;BME280;7845;53.698;10.078;2023-01-15T05:37:44;98927.38;;;7.71;100.00
15487;BME280;7845;53.698;10.078;2023-01-15T05:40:09;98931.94;;;7.63;100.00
15487;BME280;7845;53.698;10.078;2023-01-15T05:42:35;98936.84;;;7.74;100.00
15487;BME280;7845;53.698;10.078;2023-01-15T05:45:00;98936.91;;;7.71;100.00
15487;BME280;7845;53.698;10.078;2023-01-15T05:47:26;98930.84;;;7.72;100.00
15487;BME280;7845;53.698;10.078;2023-01-15T05:49:52;98935.31;;;7.67;100.00
15487;BME280;7845;53.698;10.078;2023-01-15T05:52:17;98931.94;;;7.63;100.00
15487;BME280;7845;53.698;10.078;2023-01-15T05:54:43;98926.03;;;7.58;100.00
15487;BME280;7845;53.698;10.078;2023-01-15T05:57:10;98927.69;;;7.61;100.00
15487;BME280;7845;53.698;10.078;2023-01-15T05:59:37;98922.56;;;7.58;100.00
15487;BME280;7845;53.698;10.078;2023-01-15T06:02:03;98930.38;;;7.56;100.00
15487;BME280;7845;53.698;10.078;2023-01-15T06:04:29;98931.38;;;7.52;100.00
15487;BME280;7845;53.698;10.078;2023-01-15T06:06:55;98939.19;;;7.51;100.00
15487;BME280;7845;53.698;10.078;2023-01-15T06:09:22;98935.66;;;7.53;100.00
15487;BME280;7845;53.698;10.078;2023-01-15T06:11:48;98941.69;;;7.54;100.00
15487;BME280;7845;53.698;10.078;2023-01-15T06:14:14;98944.22;;;7.57;100.00
15487;BME280;7845;53.698;10.078;2023-01-15T06:16:40;98933.97;;;7.52;100.00
15487;BME280;7845;53.698;10.078;2023-01-15T06:19:06;98938.28;;;7.52;100.00
15487;BME280;7845;53.698;10.078;2023-01-15T06:21:33;98940.06;;;7.50;100.00
15487;BME280;7845;53.698;10.078;2023-01-15T06:24:00;98944.50;;;7.46;100.00
15487;BME280;7845;53.698;10.078;2023-01-15T06:26:25;98945.22;;;7.51;100.00
15487;BME280;7845;53.698;10.078;2023-01-15T06:28:51;98951.22;;;7.53;100.00
15487;BME280;7845;53.698;10.078;2023-01-15T06:31:18;98940.81;;;7.55;100.00
15487;BME280;7845;53.698;10.078;2023-01-15T06:33:44;98944.44;;;7.48;100.00
15487;BME280;7845;53.698;10.078;2023-01-15T06:36:13;98940.03;;;7.51;100.00
15487;BME280;7845;53.698;10.078;2023-01-15T06:38:39;98933.91;;;7.54;100.00
15487;BME280;7845;53.698;10.078;2023-01-15T06:41:07;98950.34;;;7.54;100.00
15487;BME280;7845;53.698;10.078;2023-01-15T06:43:51;98945.00;;;7.60;100.00
15487;BME280;7845;53.698;10.078;2023-01-15T06:46:43;98948.47;;;7.59;100.00
15487;BME280;7845;53.698;10.078;2023-01-15T06:49:30;98951.91;;;7.61;100.00
15487;BME280;7845;53.698;10.078;2023-01-15T06:51:55;98940.53;;;7.65;100.00
15487;BME280;7845;53.698;10.078;2023-01-15T06:54:22;98940.50;;;7.67;100.00
15487;BME280;7845;53.698;10.078;2023-01-15T06:56:47;98938.78;;;7.66;100.00
15487;BME280;7845;53.698;10.078;2023-01-15T06:59:12;98943.03;;;7.68;100.00
15487;BME280;7845;53.698;10.078;2023-01-15T07:01:38;98940.50;;;7.67;100.00
15487;BME280;7845;53.698;10.078;2023-01-15T07:04:03;98944.75;;;7.69;100.00
15487;BME280;7845;53.698;10.078;2023-01-15T07:06:28;98944.06;;;7.63;100.00
15487;BME280;7845;53.698;10.078;2023-01-15T07:08:55;98940.53;;;7.65;100.00
15487;BME280;7845;53.698;10.078;2023-01-15T07:11:21;98934.53;;;7.63;100.00
15487;BME280;7845;53.698;10.078;2023-01-15T07:13:46;98948.31;;;7.65;100.00
15487;BME280;7845;53.698;10.078;2023-01-15T07:16:13;98946.56;;;7.66;100.00
15487;BME280;7845;53.698;10.078;2023-01-15T07:18:54;98949.97;;;7.68;100.00
15487;BME280;7845;53.698;10.078;2023-01-15T07:21:19;98952.66;;;7.65;100.00
15487;BME280;7845;53.698;10.078;2023-01-15T07:23:44;98953.59;;;7.62;100.00
15487;BME280;7845;53.698;10.078;2023-01-15T07:26:10;98946.66;;;7.63;100.00
15487;BME280;7845;53.698;10.078;2023-01-15T07:28:35;98947.63;;;7.59;100.00
15487;BME280;7845;53.698;10.078;2023-01-15T07:31:01;98941.53;;;7.60;100.00
15487;BME280;7845;53.698;10.078;2023-01-15T07:33:26;98960.53;;;7.62;100.00
15487;BME280;7845;53.698;10.078;2023-01-15T07:35:51;98955.47;;;7.57;100.00
15487;BME280;7845;53.698;10.078;2023-01-15T07:38:16;98951.94;;;7.60;100.00
15487;BME280;7845;53.698;10.078;2023-01-15T07:40:42;98957.81;;;7.66;100.00
15487;BME280;7845;53.698;10.078;2023-01-15T07:43:09;98961.19;;;7.70;100.00
15487;BME280;7845;53.698;10.078;2023-01-15T07:45:53;98967.44;;;7.63;100.00
15487;BME280;7845;53.698;10.078;2023-01-15T07:48:37;98964.88;;;7.61;100.00
15487;BME280;7845;53.698;10.078;2023-01-15T07:51:21;98965.03;;;7.55;100.00
15487;BME280;7845;53.698;10.078;2023-01-15T07:53:46;98969.16;;;7.62;100.00
15487;BME280;7845;53.698;10.078;2023-01-15T07:56:11;98952.84;;;7.57;100.00
15487;BME280;7845;53.698;10.078;2023-01-15T07:58:37;98954.56;;;7.58;100.00
15487;BME280;7845;53.698;10.078;2023-01-15T08:01:02;98963.94;;;7.64;100.00
15487;BME280;7845;53.698;10.078;2023-01-15T08:03:27;98963.34;;;7.53;100.00
15487;BME280;7845;53.698;10.078;2023-01-15T08:05:53;98959.00;;;7.53;100.00
15487;BME280;7845;53.698;10.078;2023-01-15T08:08:18;98961.66;;;7.52;100.00
15487;BME280;7845;53.698;10.078;2023-01-15T08:10:44;98966.88;;;7.50;100.00
15487;BME280;7845;53.698;10.078;2023-01-15T08:13:28;98975.50;;;7.52;100.00
15487;BME280;7845;53.698;10.078;2023-01-15T08:16:13;98972.84;;;7.54;100.00
15487;BME280;7845;53.698;10.078;2023-01-15T08:18:40;98959.78;;;7.58;100.00
15487;BME280;7845;53.698;10.078;2023-01-15T08:21:13;98962.28;;;7.61;100.00
15487;BME280;7845;53.698;10.078;2023-01-15T08:23:39;98962.31;;;7.60;100.00
15487;BME280;7845;53.698;10.078;2023-01-15T08:26:04;98968.22;;;7.66;100.00
15487;BME280;7845;53.698;10.078;2023-01-15T08:28:30;98972.53;;;7.66;100.00
15487;BME280;7845;53.698;10.078;2023-01-15T08:30:55;98961.13;;;7.73;100.00
15487;BME280;7845;53.698;10.078;2023-01-15T08:33:20;98974.22;;;7.68;100.00
15487;BME280;7845;53.698;10.078;2023-01-15T08:35:46;98967.56;;;7.58;100.00
15487;BME280;7845;53.698;10.078;2023-01-15T08:38:11;98973.66;;;7.56;100.00
15487;BME280;7845;53.698;10.078;2023-01-15T08:40:37;98957.47;;;7.46;100.00
15487;BME280;7845;53.698;10.078;2023-01-15T08:43:22;98948.06;;;7.41;100.00
15487;BME280;7845;53.698;10.078;2023-01-15T08:45:48;98966.44;;;7.33;100.00
15487;BME280;7845;53.698;10.078;2023-01-15T08:48:13;98962.97;;;7.33;100.00
15487;BME280;7845;53.698;10.078;2023-01-15T08:50:39;98956.97;;;7.31;100.00
15487;BME280;7845;53.698;10.078;2023-01-15T08:53:05;98955.31;;;7.28;100.00
15487;BME280;7845;53.698;10.078;2023-01-15T08:55:31;98953.53;;;7.30;100.00
15487;BME280;7845;53.698;10.078;2023-01-15T08:57:57;98953.59;;;7.27;100.00
15487;BME280;7845;53.698;10.078;2023-01-15T09:00:22;98935.50;;;7.26;100.00
15487;BME280;7845;53.698;10.078;2023-01-15T09:02:49;98945.19;;;7.17;100.00
15487;BME280;7845;53.698;10.078;2023-01-15T09:05:14;98942.59;;;7.17;100.00
15487;BME280;7845;53.698;10.078;2023-01-15T09:07:39;98935.59;;;7.21;100.00
15487;BME280;7845;53.698;10.078;2023-01-15T09:10:05;98933.91;;;7.18;100.00
15487;BME280;7845;53.698;10.078;2023-01-15T09:12:30;98928.06;;;7.10;100.00
15487;BME280;7845;53.698;10.078;2023-01-15T09:14:56;98929.59;;;7.17;100.00
15487;BME280;7845;53.698;10.078;2023-01-15T09:17:22;98923.56;;;7.17;100.00
15487;BME280;7845;53.698;10.078;2023-01-15T09:19:47;98926.94;;;7.20;100.00
15487;BME280;7845;53.698;10.078;2023-01-15T09:22:12;98938.16;;;7.22;100.00
15487;BME280;7845;53.698;10.078;2023-01-15T09:24:39;98941.63;;;7.21;100.00
15487;BME280;7845;53.698;10.078;2023-01-15T09:27:04;98942.50;;;7.20;100.00
15487;BME280;7845;53.698;10.078;2023-01-15T09:29:30;98935.63;;;7.19;100.00
15487;BME280;7845;53.698;10.078;2023-01-15T09:31:55;98939.00;;;7.23;100.00
15487;BME280;7845;53.698;10.078;2023-01-15T09:34:21;98943.97;;;7.32;100.00
15487;BME280;7845;53.698;10.078;2023-01-15T09:36:47;98950.66;;;7.41;100.00
15487;BME280;7845;53.698;10.078;2023-01-15T09:39:12;98945.31;;;7.47;100.00
15487;BME280;7845;53.698;10.078;2023-01-15T09:47:41;98947.19;;;7.75;100.00
15487;BME280;7845;53.698;10.078;2023-01-15T09:50:39;98958.25;;;7.84;100.00
15487;BME280;7845;53.698;10.078;2023-01-15T09:53:20;98956.34;;;7.90;100.00
15487;BME280;7845;53.698;10.078;2023-01-15T09:55:49;98950.00;;;8.00;100.00
15487;BME280;7845;53.698;10.078;2023-01-15T09:58:19;98940.28;;;8.07;100.00
15487;BME280;7845;53.698;10.078;2023-01-15T10:00:48;98956.66;;;8.10;100.00
15487;BME280;7845;53.698;10.078;2023-01-15T10:03:24;98960.63;;;8.23;100.00
15487;BME280;7845;53.698;10.078;2023-01-15T10:06:03;98952.31;;;8.11;100.00
15487;BME280;7845;53.698;10.078;2023-01-15T10:08:34;98946.97;;;8.15;100.00
15487;BME280;7845;53.698;10.078;2023-01-15T10:11:04;98942.72;;;8.13;100.00
15487;BME280;7845;53.698;10.078;2023-01-15T10:13:51;98940.00;;;8.17;100.00
15487;BME280;7845;53.698;10.078;2023-01-15T10:16:28;98946.66;;;8.27;100.00
15487;BME280;7845;53.698;10.078;2023-01-15T10:18:56;98942.34;;;8.26;100.00
15487;BME280;7845;53.698;10.078;2023-01-15T10:24:37;98953.09;;;8.14;100.00
15487;BME280;7845;53.698;10.078;2023-01-15T10:27:19;98965.16;;;8.15;100.00
15487;BME280;7845;53.698;10.078;2023-01-15T10:32:55;98961.75;;;8.15;100.00
15487;BME280;7845;53.698;10.078;2023-01-15T10:35:26;98964.19;;;8.19;100.00
15487;BME280;7845;53.698;10.078;2023-01-15T10:38:15;98934.84;;;8.16;100.00
15487;BME280;7845;53.698;10.078;2023-01-15T10:41:10;98942.63;;;8.17;100.00
15487;BME280;7845;53.698;10.078;2023-01-15T10:44:11;98933.72;;;8.24;100.00
15487;BME280;7845;53.698;10.078;2023-01-15T10:46:39;98943.41;;;8.19;100.00
15487;BME280;7845;53.698;10.078;2023-01-15T10:49:16;98938.28;;;8.18;100.00
15487;BME280;7845;53.698;10.078;2023-01-15T10:56:54;98914.59;;;8.28;100.00
15487;BME280;7845;53.698;10.078;2023-01-15T10:59:35;98918.28;;;8.20;100.00
15487;BME280;7845;53.698;10.078;2023-01-15T11:02:19;98913.72;;;8.29;100.00
15487;BME280;7845;53.698;10.078;2023-01-15T11:04:45;98931.06;;;8.27;100.00
15487;BME280;7845;53.698;10.078;2023-01-15T11:07:11;98924.44;;;8.16;100.00
15487;BME280;7845;53.698;10.078;2023-01-15T11:09:40;98914.63;;;8.27;100.00
15487;BME280;7845;53.698;10.078;2023-01-15T11:14:44;98922.41;;;8.27;100.00
15487;BME280;7845;53.698;10.078;2023-01-15T11:17:35;98920.03;;;8.19;100.00
15487;BME280;7845;53.698;10.078;2023-01-15T11:22:48;98908.38;;;8.34;100.00
15487;BME280;7845;53.698;10.078;2023-01-15T11:25:24;98894.56;;;8.32;100.00
15487;BME280;7845;53.698;10.078;2023-01-15T11:27:50;98905.78;;;8.34;100.00
15487;BME280;7845;53.698;10.078;2023-01-15T11:30:31;98892.16;;;8.24;100.00
15487;BME280;7845;53.698;10.078;2023-01-15T11:32:59;98892.13;;;8.26;100.00
15487;BME280;7845;53.698;10.078;2023-01-15T11:35:25;98883.16;;;8.38;100.00
15487;BME280;7845;53.698;10.078;2023-01-15T11:38:11;98882.34;;;8.36;100.00
15487;BME280;7845;53.698;10.078;2023-01-15T11:40:37;98889.53;;;8.24;100.00
15487;BME280;7845;53.698;10.078;2023-01-15T11:43:03;98881.59;;;8.32;100.00
15487;BME280;7845;53.698;10.078;2023-01-15T11:45:48;98882.53;;;8.29;100.00
15487;BME280;7845;53.698;10.078;2023-01-15T11:48:41;98890.09;;;8.37;100.00
15487;BME280;7845;53.698;10.078;2023-01-15T11:51:26;98873.44;;;8.43;100.00
15487;BME280;7845;53.698;10.078;2023-01-15T11:53:56;98891.63;;;8.44;100.00
15487;BME280;7845;53.698;10.078;2023-01-15T11:56:25;98901.56;;;8.30;100.00
15487;BME280;7845;53.698;10.078;2023-01-15T11:58:55;98893.19;;;8.19;100.00
15487;BME280;7845;53.698;10.078;2023-01-15T12:01:33;98891.50;;;8.18;100.00
15487;BME280;7845;53.698;10.078;2023-01-15T12:04:02;98896.69;;;8.18;100.00
15487;BME280;7845;53.698;10.078;2023-01-15T12:06:30;98906.94;;;8.22;100.00
15487;BME280;7845;53.698;10.078;2023-01-15T12:09:22;98910.06;;;8.04;100.00
15487;BME280;7845;53.698;10.078;2023-01-15T12:23:19;98880.13;;;7.59;100.00
15487;BME280;7845;53.698;10.078;2023-01-15T12:26:22;98873.34;;;7.53;100.00
15487;BME280;7845;53.698;10.078;2023-01-15T12:28:56;98866.34;;;7.57;100.00
15487;BME280;7845;53.698;10.078;2023-01-15T12:31:28;98878.09;;;7.70;100.00
15487;BME280;7845;53.698;10.078;2023-01-15T12:36:42;98881.28;;;7.79;100.00
15487;BME280;7845;53.698;10.078;2023-01-15T12:39:20;98865.69;;;7.79;100.00
15487;BME280;7845;53.698;10.078;2023-01-15T12:41:51;98850.78;;;7.88;100.00
15487;BME280;7845;53.698;10.078;2023-01-15T12:47:34;98854.00;;;7.96;100.00
15487;BME280;7845;53.698;10.078;2023-01-15T12:56:05;98860.97;;;8.24;100.00
15487;BME280;7845;53.698;10.078;2023-01-15T13:01:17;98845.44;;;8.23;100.00
15487;BME280;7845;53.698;10.078;2023-01-15T13:04:17;98854.34;;;8.14;100.00
15487;BME280;7845;53.698;10.078;2023-01-15T13:06:52;98849.25;;;8.11;100.00
15487;BME280;7845;53.698;10.078;2023-01-15T13:09:30;98837.38;;;8.03;100.00
15487;BME280;7845;53.698;10.078;2023-01-15T13:11:57;98817.34;;;8.06;100.00
15487;BME280;7845;53.698;10.078;2023-01-15T13:14:23;98825.34;;;7.99;100.00
15487;BME280;7845;53.698;10.078;2023-01-15T13:17:10;98826.38;;;7.93;100.00
15487;BME280;7845;53.698;10.078;2023-01-15T13:22:16;98810.91;;;7.89;100.00
15487;BME280;7845;53.698;10.078;2023-01-15T13:27:39;98800.84;;;7.78;100.00
15487;BME280;7845;53.698;10.078;2023-01-15T13:33:26;98799.00;;;7.82;100.00
15487;BME280;7845;53.698;10.078;2023-01-15T13:36:17;98795.31;;;7.89;100.00
15487;BME280;7845;53.698;10.078;2023-01-15T13:38:45;98795.56;;;7.81;100.00
15487;BME280;7845;53.698;10.078;2023-01-15T13:41:24;98791.31;;;7.78;100.00
15487;BME280;7845;53.698;10.078;2023-01-15T13:44:30;98795.50;;;7.82;100.00
15487;BME280;7845;53.698;10.078;2023-01-15T13:47:03;98799.13;;;7.77;100.00
15487;BME280;7845;53.698;10.078;2023-01-15T13:49:51;98795.56;;;7.81;100.00
15487;BME280;7845;53.698;10.078;2023-01-15T13:52:27;98786.91;;;7.80;100.00
15487;BME280;7845;53.698;10.078;2023-01-15T13:55:06;98789.22;;;7.91;100.00
15487;BME280;7845;53.698;10.078;2023-01-15T13:57:36;98792.63;;;7.92;100.00
15487;BME280;7845;53.698;10.078;2023-01-15T14:00:05;98797.75;;;7.95;100.00
15487;BME280;7845;53.698;10.078;2023-01-15T14:02:35;98776.00;;;7.99;100.00
15487;BME280;7845;53.698;10.078;2023-01-15T14:05:32;98800.06;;;8.05;100.00
15487;BME280;7845;53.698;10.078;2023-01-15T14:07:59;98792.09;;;8.10;100.00
15487;BME280;7845;53.698;10.078;2023-01-15T14:10:35;98792.19;;;8.07;100.00
15487;BME280;7845;53.698;10.078;2023-01-15T14:13:18;98799.00;;;8.11;100.00
15487;BME280;7845;53.698;10.078;2023-01-15T14:16:11;98787.81;;;8.09;100.00
15487;BME280;7845;53.698;10.078;2023-01-15T14:35:13;98790.44;;;8.09;100.00
15487;BME280;7845;53.698;10.078;2023-01-15T14:40:22;98786.09;;;8.09;100.00
15487;BME280;7845;53.698;10.078;2023-01-15T14:42:51;98790.50;;;8.06;100.00